Time;durP1;ratioP1;P1;durP2;ratioP2;P2;SDS_P1;SDS_P2;PMS_P1;PMS_P2;Temp;Humidity;BMP_temperature;BMP_pressure;BME280_temperature;BME280_humidity;BME280_pressure;Samples;Min_cycle;Max_cycle;Signal;HPM_P1;HPM_P2
2022/12/17 13:06:14;;;;;;;37.47;24.65;;;6.80;99.90;;;;;;4992498;28;20042;-78
2022/12/17 13:08:42;;;;;;;37.88;25.83;;;6.70;99.90;;;;;;4992866;28;20505;-79
2022/12/17 13:11:25;;;;;;;36.28;23.65;;;6.60;99.90;;;;;;4991757;28;20396;-78
2022/12/17 13:13:55;;;;;;;38.20;25.40;;;6.60;99.90;;;;;;5002154;28;20097;-77
2022/12/17 13:16:48;;;;;;;38.05;24.20;;;6.70;99.90;;;;;;5003268;28;20053;-81
2022/12/17 13:19:22;;;;;;;34.95;22.95;;;6.80;99.90;;;;;;5006556;28;20064;-79
2022/12/17 13:21:53;;;;;;;41.07;26.90;;;6.70;99.90;;;;;;5004231;28;20998;-79
2022/12/17 13:24:26;;;;;;;34.47;23.60;;;6.70;99.90;;;;;;4992981;28;20783;-77
2022/12/17 13:26:53;;;;;;;42.25;27.10;;;6.50;99.90;;;;;;5006954;28;20057;-77
2022/12/17 13:29:27;;;;;;;40.63;25.92;;;6.40;99.90;;;;;;4991119;28;20038;-80
2022/12/17 13:32:08;;;;;;;35.35;24.50;;;6.40;99.90;;;;;;4991837;28;20457;-79
2022/12/17 13:34:53;;;;;;;36.58;24.48;;;6.40;99.90;;;;;;4993954;28;20041;-79
2022/12/17 13:37:32;;;;;;;37.05;24.20;;;6.50;99.90;;;;;;4992920;28;20490;-81
2022/12/17 13:40:13;;;;;;;37.95;25.70;;;6.40;99.90;;;;;;4993037;28;20483;-79
2022/12/17 13:42:41;;;;;;;35.15;23.20;;;6.40;99.90;;;;;;4992447;28;21567;-78
2022/12/17 13:45:15;;;;;;;37.70;24.25;;;6.30;99.90;;;;;;4991267;28;21854;-79
2022/12/17 13:47:43;;;;;;;32.78;22.48;;;6.30;99.90;;;;;;4991069;28;20070;-79
2022/12/17 13:50:22;;;;;;;41.00;25.70;;;6.30;99.90;;;;;;4989898;28;20478;-79
2022/12/17 13:52:51;;;;;;;38.65;24.90;;;6.40;99.90;;;;;;4990902;28;20042;-79
2022/12/17 13:55:21;;;;;;;34.97;24.42;;;6.50;99.90;;;;;;4991738;28;20113;-79
2022/12/17 13:57:51;;;;;;;40.33;26.55;;;6.60;99.90;;;;;;4991563;28;20506;-78
2022/12/17 14:00:22;;;;;;;43.33;26.30;;;6.60;99.90;;;;;;4991464;28;20129;-78
2022/12/17 14:02:50;;;;;;;44.08;27.02;;;6.70;99.90;;;;;;4991874;28;20038;-78
2022/12/17 14:05:26;;;;;;;42.85;27.85;;;6.60;99.90;;;;;;4990378;28;20117;-80
2022/12/17 14:07:59;;;;;;;40.47;27.55;;;6.50;99.90;;;;;;4990155;28;20038;-78
2022/12/17 14:10:26;;;;;;;44.90;28.08;;;6.40;99.90;;;;;;4991108;28;20045;-77
2022/12/17 14:13:03;;;;;;;45.75;29.50;;;6.40;99.90;;;;;;4991368;28;20061;-79
2022/12/17 14:15:30;;;;;;;48.45;31.95;;;6.30;99.90;;;;;;4991310;28;20093;-77
2022/12/17 14:17:59;;;;;;;49.85;30.65;;;6.20;99.90;;;;;;4990163;28;20042;-78
2022/12/17 14:20:30;;;;;;;46.00;29.45;;;6.20;99.90;;;;;;4990269;28;20053;-77
2022/12/17 14:23:04;;;;;;;41.65;27.70;;;6.20;99.90;;;;;;4991641;28;20046;-77
2022/12/17 14:25:35;;;;;;;42.35;28.77;;;6.20;99.90;;;;;;4995793;28;20042;-79
2022/12/17 14:28:05;;;;;;;38.55;27.02;;;6.20;99.90;;;;;;4996688;28;20053;-77
2022/12/17 14:30:42;;;;;;;45.08;29.75;;;6.20;99.90;;;;;;4990055;28;20050;-78
2022/12/17 14:33:27;;;;;;;51.30;31.45;;;6.30;99.90;;;;;;4996809;28;20050;-79
2022/12/17 14:35:57;;;;;;;54.63;35.80;;;6.40;99.90;;;;;;4997455;28;20089;-81
2022/12/17 14:38:26;;;;;;;56.38;35.67;;;6.40;99.90;;;;;;4995381;28;20125;-80
2022/12/17 14:42:23;;;;;;;48.35;33.05;;;6.30;99.90;;;;;;4994536;28;20050;-80
2022/12/17 14:43:56;;;;;;;47.42;30.60;;;6.20;99.90;;;;;;4993469;28;20068;-80
2022/12/17 14:46:24;;;;;;;45.05;30.50;;;6.20;99.90;;;;;;4996819;28;20134;-78
2022/12/17 14:49:00;;;;;;;46.15;31.50;;;6.20;99.90;;;;;;4995257;28;20061;-76
2022/12/17 14:51:31;;;;;;;44.95;29.65;;;6.20;99.90;;;;;;4993413;28;20042;-78
2022/12/17 14:54:18;;;;;;;43.13;29.42;;;6.20;99.90;;;;;;4994305;28;20039;-80
2022/12/17 14:56:48;;;;;;;47.25;31.35;;;6.20;99.90;;;;;;4993083;28;20042;-78
2022/12/17 14:59:24;;;;;;;50.17;32.08;;;6.10;99.90;;;;;;4997940;28;20038;-81
2022/12/17 15:01:53;;;;;;;46.50;30.55;;;6.10;99.90;;;;;;4998556;28;20073;-78
2022/12/17 15:04:22;;;;;;;47.97;31.90;;;6.10;99.90;;;;;;4995683;28;20042;-81
2022/12/17 15:06:50;;;;;;;49.10;33.15;;;6.00;99.90;;;;;;4992841;28;20174;-79
2022/12/17 15:09:20;;;;;;;51.22;31.90;;;6.00;99.90;;;;;;4993120;28;20065;-88
2022/12/17 15:11:48;;;;;;;48.88;31.60;;;6.00;99.90;;;;;;4991831;28;20966;-80
2022/12/17 15:14:15;;;;;;;42.88;29.25;;;6.00;99.90;;;;;;4993386;28;20043;-78
2022/12/17 15:16:42;;;;;;;45.88;31.02;;;5.90;99.90;;;;;;4994552;28;20510;-78
2022/12/17 15:19:10;;;;;;;46.15;30.90;;;5.90;99.90;;;;;;4992819;28;20042;-79
2022/12/17 15:21:37;;;;;;;41.13;28.17;;;6.00;99.90;;;;;;4990735;28;20039;-78
2022/12/17 15:24:11;;;;;;;43.85;28.73;;;6.00;99.90;;;;;;4993791;28;20096;-78
2022/12/17 15:26:39;;;;;;;42.33;29.15;;;6.00;99.90;;;;;;4992769;28;20050;-78
2022/12/17 15:29:07;;;;;;;47.72;30.83;;;6.00;99.90;;;;;;4993734;28;20038;-77
2022/12/17 15:31:35;;;;;;;42.28;27.70;;;6.00;99.90;;;;;;4993513;28;20388;-77
2022/12/17 15:34:02;;;;;;;47.95;31.85;;;5.90;99.90;;;;;;4992984;28;20054;-78
2022/12/17 15:36:30;;;;;;;44.75;30.85;;;5.90;99.90;;;;;;4996172;28;20042;-77
2022/12/17 15:38:58;;;;;;;46.97;31.67;;;5.90;99.90;;;;;;4992848;28;20042;-77
2022/12/17 15:44:12;;;;;;;47.03;31.67;;;5.90;99.90;;;;;;4993737;28;20054;-77
2022/12/17 15:46:39;;;;;;;52.22;33.40;;;5.90;99.90;;;;;;4991909;28;20045;-78
2022/12/17 15:49:07;;;;;;;52.20;33.90;;;5.80;99.90;;;;;;4993474;28;20041;-79
2022/12/17 15:51:34;;;;;;;49.17;33.88;;;5.80;99.90;;;;;;4993656;28;20038;-77
2022/12/17 15:54:03;;;;;;;55.67;35.90;;;5.80;99.90;;;;;;4993845;28;20073;-76
2022/12/17 15:56:33;;;;;;;53.30;35.60;;;5.90;99.90;;;;;;4993343;28;20042;-78
2022/12/17 15:59:01;;;;;;;50.50;33.28;;;5.80;99.90;;;;;;4994016;28;20046;-76
2022/12/17 16:01:29;;;;;;;49.30;32.85;;;5.80;99.90;;;;;;4993992;28;20039;-79
2022/12/17 16:03:58;;;;;;;47.55;33.28;;;5.80;99.90;;;;;;4993891;28;20046;-81
2022/12/17 16:06:25;;;;;;;48.83;32.30;;;5.80;99.90;;;;;;4993242;28;20064;-79
2022/12/17 16:08:53;;;;;;;46.65;32.63;;;5.70;99.90;;;;;;4992565;28;20037;-80
2022/12/17 16:11:20;;;;;;;45.60;30.85;;;5.70;99.90;;;;;;4993298;28;20564;-79
2022/12/17 16:13:47;;;;;;;47.78;31.02;;;5.60;99.90;;;;;;4992872;28;20045;-77
2022/12/17 16:16:15;;;;;;;46.75;30.20;;;5.50;99.90;;;;;;4993216;28;20050;-78
2022/12/17 16:18:45;;;;;;;42.83;27.70;;;5.50;99.90;;;;;;4993067;28;20073;-79
2022/12/17 16:21:12;;;;;;;40.85;27.08;;;5.40;99.90;;;;;;4992056;28;20125;-79
2022/12/17 16:23:40;;;;;;;39.55;26.70;;;5.40;99.90;;;;;;4992599;28;20074;-79
2022/12/17 16:26:09;;;;;;;37.85;24.85;;;5.40;99.90;;;;;;4992596;28;20065;-78
2022/12/17 16:28:37;;;;;;;32.40;22.73;;;5.40;99.90;;;;;;4992819;28;20470;-78
2022/12/17 16:31:06;;;;;;;29.30;21.25;;;5.40;99.90;;;;;;4991543;28;20062;-78
2022/12/17 16:33:34;;;;;;;31.58;20.77;;;5.40;99.90;;;;;;4991976;28;20050;-78
2022/12/17 16:36:14;;;;;;;30.80;20.65;;;5.40;99.90;;;;;;4992739;28;20084;-78
2022/12/17 16:38:44;;;;;;;32.00;21.00;;;5.40;99.90;;;;;;4990622;28;20062;-77
2022/12/17 16:41:12;;;;;;;33.35;20.80;;;5.40;99.90;;;;;;4992297;28;20133;-78
2022/12/17 16:43:44;;;;;;;34.00;21.98;;;5.50;99.90;;;;;;4991581;28;20118;-79
2022/12/17 16:46:25;;;;;;;30.45;19.38;;;5.50;99.90;;;;;;4991915;28;20041;-78
2022/12/17 16:48:53;;;;;;;32.10;21.05;;;5.60;99.90;;;;;;4992167;28;20035;-80
2022/12/17 16:51:24;;;;;;;30.25;19.58;;;5.50;99.90;;;;;;4994460;28;20084;-80
2022/12/17 16:53:52;;;;;;;28.08;19.00;;;5.50;99.90;;;;;;4993917;28;20041;-79
2022/12/17 16:56:21;;;;;;;29.92;19.30;;;5.50;99.90;;;;;;4993441;28;20030;-77
2022/12/17 16:58:49;;;;;;;27.40;18.50;;;5.50;99.90;;;;;;4992921;28;20036;-79
2022/12/17 17:01:21;;;;;;;31.17;18.45;;;5.50;99.90;;;;;;4994114;28;20050;-78
2022/12/17 17:03:49;;;;;;;30.08;18.50;;;5.50;99.90;;;;;;4991065;28;20144;-78
2022/12/17 17:06:19;;;;;;;32.03;19.60;;;5.40;99.90;;;;;;4991000;28;20098;-81
2022/12/17 17:08:48;;;;;;;32.25;20.88;;;5.40;99.90;;;;;;4997698;28;20081;-80
2022/12/17 17:11:18;;;;;;;39.15;22.27;;;5.40;99.90;;;;;;4995444;28;20038;-80
2022/12/17 17:13:46;;;;;;;30.33;19.52;;;5.40;99.90;;;;;;4997730;28;20042;-75
2022/12/17 17:16:13;;;;;;;30.70;20.27;;;5.40;99.90;;;;;;4992993;28;20482;-78
2022/12/17 17:18:41;;;;;;;31.80;20.55;;;5.30;99.90;;;;;;4992502;28;20104;-79
2022/12/17 17:21:25;;;;;;;31.38;19.88;;;5.30;99.90;;;;;;4991969;28;20510;-78
2022/12/17 17:23:58;;;;;;;31.55;19.02;;;5.20;99.90;;;;;;4992268;28;20049;-79
2022/12/17 17:26:27;;;;;;;31.33;20.90;;;5.30;99.90;;;;;;4991122;28;20597;-80
2022/12/17 17:28:55;;;;;;;32.28;21.65;;;5.20;99.90;;;;;;4992992;28;20048;-79
2022/12/17 17:31:23;;;;;;;33.22;21.63;;;5.20;99.90;;;;;;4999207;28;20051;-79
2022/12/17 17:33:52;;;;;;;36.92;22.30;;;5.30;99.90;;;;;;5005841;28;20046;-79
2022/12/17 17:36:21;;;;;;;31.40;20.27;;;5.30;99.90;;;;;;4997242;28;20560;-79
2022/12/17 17:38:50;;;;;;;37.60;23.23;;;5.30;99.90;;;;;;5007688;28;20361;-78
2022/12/17 17:41:20;;;;;;;36.53;23.80;;;5.30;99.90;;;;;;5003859;28;20066;-78
2022/12/17 17:43:52;;;;;;;34.17;22.17;;;5.30;99.90;;;;;;5001243;28;20046;-79
2022/12/17 17:46:20;;;;;;;40.10;25.80;;;5.30;99.90;;;;;;5006143;28;20043;-78
2022/12/17 17:48:48;;;;;;;39.53;25.02;;;5.30;99.90;;;;;;4992101;28;20046;-78
2022/12/17 17:51:18;;;;;;;42.45;26.85;;;5.30;99.90;;;;;;4999450;28;20054;-79
2022/12/17 17:53:46;;;;;;;39.90;25.50;;;5.30;99.90;;;;;;4992052;28;20152;-80
2022/12/17 17:56:16;;;;;;;46.17;28.35;;;5.30;99.90;;;;;;4992378;28;20046;-80
2022/12/17 17:58:47;;;;;;;50.80;32.95;;;5.30;99.90;;;;;;4993297;28;20097;-78
2022/12/17 18:01:16;;;;;;;44.35;28.10;;;5.30;99.90;;;;;;5011789;28;20558;-79
2022/12/17 18:03:44;;;;;;;45.28;26.88;;;5.20;99.90;;;;;;5014342;28;20050;-79
2022/12/17 18:06:13;;;;;;;46.38;26.70;;;5.20;99.90;;;;;;5009520;28;20050;-79
2022/12/17 18:08:41;;;;;;;42.05;25.98;;;5.20;99.90;;;;;;4992888;28;20114;-80
2022/12/17 18:11:11;;;;;;;39.33;24.92;;;5.20;99.90;;;;;;4995007;28;20038;-78
2022/12/17 18:13:56;;;;;;;42.13;25.80;;;5.20;99.90;;;;;;4996073;28;20034;-79
2022/12/17 18:16:27;;;;;;;40.78;25.58;;;5.10;99.90;;;;;;4995194;28;20053;-80
2022/12/17 18:18:56;;;;;;;31.02;21.92;;;5.10;99.90;;;;;;4995211;28;20110;-81
2022/12/17 18:21:27;;;;;;;31.20;22.23;;;5.10;99.90;;;;;;4992906;28;20422;-80
2022/12/17 18:23:58;;;;;;;35.03;22.40;;;5.10;99.90;;;;;;4994495;28;20057;-79
2022/12/17 18:26:27;;;;;;;37.75;24.85;;;5.10;99.90;;;;;;4995161;28;20053;-81
2022/12/17 18:28:54;;;;;;;44.45;26.95;;;5.00;99.90;;;;;;5000942;28;20045;-78
2022/12/17 18:31:25;;;;;;;39.35;25.20;;;5.10;99.90;;;;;;5006184;28;20069;-78
2022/12/17 18:33:55;;;;;;;35.03;22.98;;;5.10;99.90;;;;;;5007925;28;20043;-79
2022/12/17 18:36:26;;;;;;;34.50;23.05;;;5.00;99.90;;;;;;4998729;28;20124;-79
2022/12/17 18:38:56;;;;;;;34.42;21.17;;;5.00;99.90;;;;;;4994198;28;20038;-80
2022/12/17 18:44:10;;;;;;;34.27;21.80;;;5.10;99.90;;;;;;4993361;28;20046;-80
2022/12/17 18:46:40;;;;;;;37.55;22.90;;;5.10;99.90;;;;;;4992505;28;20070;-81
2022/12/17 18:49:09;;;;;;;39.17;23.58;;;5.20;99.90;;;;;;4992730;28;20069;-80
2022/12/17 18:51:38;;;;;;;34.90;21.35;;;5.20;99.90;;;;;;4994123;28;20038;-80
2022/12/17 18:54:07;;;;;;;33.42;21.40;;;5.20;99.90;;;;;;4993991;28;20077;-80
2022/12/17 18:56:36;;;;;;;32.83;20.27;;;5.20;99.90;;;;;;4993260;28;20042;-80
2022/12/17 18:59:04;;;;;;;33.28;19.60;;;5.20;99.90;;;;;;4993852;28;20038;-80
2022/12/17 19:01:34;;;;;;;33.05;20.48;;;5.20;99.90;;;;;;4994093;28;20050;-80
2022/12/17 19:04:04;;;;;;;32.95;20.35;;;5.20;99.90;;;;;;4993843;28;20046;-78
2022/12/17 19:06:33;;;;;;;31.63;18.13;;;5.20;99.90;;;;;;4993122;28;20413;-79
2022/12/17 19:09:01;;;;;;;31.33;18.38;;;5.20;99.90;;;;;;4992406;28;20414;-80
2022/12/17 19:11:28;;;;;;;29.23;18.08;;;5.20;99.90;;;;;;4994448;28;20045;-78
2022/12/17 19:13:56;;;;;;;34.10;17.45;;;5.10;99.90;;;;;;4994358;28;20088;-81
2022/12/17 19:16:25;;;;;;;37.95;20.92;;;5.10;99.90;;;;;;4994707;28;20478;-81
2022/12/17 19:18:53;;;;;;;48.03;25.73;;;5.10;99.90;;;;;;4995552;28;20046;-80
2022/12/17 19:21:23;;;;;;;46.72;26.38;;;5.00;99.90;;;;;;4994934;28;20042;-80
2022/12/17 19:23:55;;;;;;;44.50;25.23;;;4.90;99.90;;;;;;4994781;28;20046;-78
2022/12/17 19:26:22;;;;;;;38.92;22.13;;;4.90;99.90;;;;;;4994148;28;20042;-81
2022/12/17 19:28:51;;;;;;;35.25;20.33;;;4.90;99.90;;;;;;4995790;28;20069;-81
2022/12/17 19:31:21;;;;;;;37.80;21.60;;;4.90;99.90;;;;;;4993026;28;20062;-81
2022/12/17 19:33:54;;;;;;;38.28;20.98;;;4.90;99.90;;;;;;4998915;28;20038;-87
2022/12/17 19:36:24;;;;;;;30.80;19.17;;;4.90;99.90;;;;;;4996004;28;20085;-85
2022/12/17 19:38:53;;;;;;;51.33;30.90;;;5.00;99.90;;;;;;4994378;28;20049;-82
2022/12/17 19:41:21;;;;;;;47.90;26.90;;;5.00;99.90;;;;;;4992673;28;20042;-85
2022/12/17 19:43:54;;;;;;;38.40;23.70;;;5.00;99.90;;;;;;4992965;28;20050;-83
2022/12/17 19:46:22;;;;;;;40.03;24.70;;;5.00;99.90;;;;;;4998504;28;20141;-85
2022/12/17 19:48:50;;;;;;;42.05;25.48;;;4.90;99.90;;;;;;5000684;28;20138;-79
2022/12/17 19:51:20;;;;;;;39.67;24.48;;;4.90;99.90;;;;;;4993322;28;20045;-81
2022/12/17 19:53:50;;;;;;;35.72;22.00;;;5.00;99.90;;;;;;4994660;28;20037;-79
2022/12/17 19:56:19;;;;;;;24.48;16.40;;;5.10;99.90;;;;;;4993573;28;20046;-77
2022/12/17 19:58:49;;;;;;;40.13;23.27;;;5.10;99.90;;;;;;4993375;28;20046;-77
2022/12/17 20:01:19;;;;;;;35.40;22.88;;;5.10;99.90;;;;;;4993640;28;20070;-76
2022/12/17 20:03:47;;;;;;;32.72;20.48;;;5.10;99.90;;;;;;4996036;28;20046;-79
2022/12/17 20:06:16;;;;;;;34.63;21.25;;;5.10;99.90;;;;;;4994746;28;20047;-79
2022/12/17 20:08:45;;;;;;;29.33;18.35;;;5.10;99.90;;;;;;4994452;28;20557;-78
2022/12/17 20:11:34;;;;;;;29.55;19.83;;;5.10;99.90;;;;;;4994244;28;20097;-78
2022/12/17 20:14:03;;;;;;;29.77;18.92;;;5.10;99.90;;;;;;4993083;28;20050;-78
2022/12/17 20:16:31;;;;;;;33.42;21.33;;;5.00;99.90;;;;;;4991596;28;20034;-77
2022/12/17 20:18:59;;;;;;;31.67;20.50;;;5.00;99.90;;;;;;4992776;28;20044;-78
2022/12/17 20:21:27;;;;;;;28.35;17.75;;;5.00;99.90;;;;;;4992008;28;20046;-79
2022/12/17 20:23:54;;;;;;;28.25;17.92;;;5.00;99.90;;;;;;4991574;28;20038;-79
2022/12/17 20:26:24;;;;;;;25.83;16.80;;;5.00;99.90;;;;;;4990989;28;20585;-79
2022/12/17 20:28:51;;;;;;;39.35;21.27;;;5.00;99.90;;;;;;4991299;28;20042;-77
2022/12/17 20:31:19;;;;;;;29.35;18.52;;;5.00;99.90;;;;;;4993067;28;20050;-77
2022/12/17 20:33:46;;;;;;;29.83;17.92;;;5.00;99.90;;;;;;4992664;28;20096;-76
2022/12/17 20:36:15;;;;;;;28.35;17.10;;;5.00;99.90;;;;;;4992423;28;20042;-77
2022/12/17 20:38:44;;;;;;;31.42;17.15;;;5.10;99.90;;;;;;4991893;28;20058;-79
2022/12/17 20:41:13;;;;;;;29.45;18.40;;;5.10;99.90;;;;;;4992193;28;20042;-78
2022/12/17 20:43:42;;;;;;;27.25;17.83;;;5.10;99.90;;;;;;4993282;28;20264;-78
2022/12/17 20:46:09;;;;;;;28.38;19.60;;;5.00;99.90;;;;;;4993085;28;20042;-78
2022/12/17 20:48:38;;;;;;;31.58;18.67;;;5.00;99.90;;;;;;4992352;28;20864;-78
2022/12/17 20:51:06;;;;;;;27.73;17.70;;;5.00;99.90;;;;;;4992674;28;20077;-78
2022/12/17 20:53:36;;;;;;;30.55;18.42;;;4.90;99.90;;;;;;4992721;28;20050;-79
2022/12/17 20:56:06;;;;;;;32.05;20.60;;;4.90;99.90;;;;;;4993183;28;20050;-78
2022/12/17 20:58:34;;;;;;;27.92;18.30;;;4.90;99.90;;;;;;4991590;28;20042;-76
2022/12/17 21:01:09;;;;;;;31.70;20.42;;;4.90;99.90;;;;;;4994698;28;20030;-78
2022/12/17 21:03:36;;;;;;;27.83;18.88;;;4.90;99.90;;;;;;4996954;28;20047;-77
2022/12/17 21:06:07;;;;;;;35.33;20.55;;;4.90;99.90;;;;;;4996075;28;20042;-79
2022/12/17 21:08:34;;;;;;;29.13;18.35;;;5.00;99.90;;;;;;4995146;28;20046;-78
2022/12/17 21:11:01;;;;;;;28.38;18.27;;;4.90;99.90;;;;;;4998132;28;20035;-78
2022/12/17 21:13:29;;;;;;;30.52;20.92;;;4.90;99.90;;;;;;4994683;28;20141;-77
2022/12/17 21:15:57;;;;;;;30.73;19.20;;;4.90;99.90;;;;;;4992499;28;20093;-78
2022/12/17 21:18:27;;;;;;;29.83;18.60;;;4.90;99.90;;;;;;4991051;28;20042;-79
2022/12/17 21:20:56;;;;;;;29.20;18.08;;;5.00;99.90;;;;;;4991429;28;20042;-78
2022/12/17 21:23:23;;;;;;;31.98;20.17;;;5.00;99.90;;;;;;4990536;28;20038;-78
2022/12/17 21:26:01;;;;;;;40.40;24.92;;;5.00;99.90;;;;;;4992176;28;20100;-79
2022/12/17 21:28:30;;;;;;;49.90;29.83;;;4.90;99.90;;;;;;4991748;28;20034;-80
2022/12/17 21:30:57;;;;;;;44.42;28.40;;;4.90;99.90;;;;;;4993889;28;20050;-80
2022/12/17 21:33:26;;;;;;;46.97;28.98;;;4.90;99.90;;;;;;4992527;28;20046;-79
2022/12/17 21:35:59;;;;;;;52.75;32.10;;;4.90;99.90;;;;;;4990803;28;20039;-78
2022/12/17 21:38:26;;;;;;;53.45;32.10;;;4.90;99.90;;;;;;4989682;28;20148;-78
2022/12/17 21:40:54;;;;;;;50.45;30.80;;;4.90;99.90;;;;;;4999652;28;20461;-79
2022/12/17 21:43:23;;;;;;;48.83;29.17;;;4.90;99.90;;;;;;4993327;28;20044;-79
2022/12/17 21:45:59;;;;;;;50.97;29.98;;;4.90;99.90;;;;;;4993015;28;20043;-80
2022/12/17 21:48:29;;;;;;;48.40;28.95;;;4.90;99.90;;;;;;4992211;28;20081;-79
2022/12/17 21:50:58;;;;;;;39.42;24.98;;;4.90;99.90;;;;;;4984851;28;20088;-74
2022/12/17 21:53:28;;;;;;;39.97;25.02;;;4.90;99.90;;;;;;4991390;28;20045;-74
2022/12/17 21:56:03;;;;;;;38.08;24.48;;;4.90;99.90;;;;;;4991114;28;20069;-75
2022/12/17 21:58:32;;;;;;;41.50;26.17;;;4.90;99.90;;;;;;4990909;28;20046;-74
2022/12/17 22:01:08;;;;;;;39.00;24.42;;;4.90;99.90;;;;;;4990884;28;20487;-75
2022/12/17 22:03:38;;;;;;;40.38;24.85;;;4.90;99.90;;;;;;4990657;28;20046;-77
2022/12/17 22:06:16;;;;;;;40.78;25.85;;;4.80;99.90;;;;;;4988633;28;20046;-78
2022/12/17 22:08:48;;;;;;;40.58;26.17;;;4.80;99.90;;;;;;4990626;28;20443;-78
2022/12/17 22:11:23;;;;;;;38.67;25.45;;;4.80;99.90;;;;;;4990053;28;20554;-79
2022/12/17 22:14:05;;;;;;;42.30;26.13;;;4.80;99.90;;;;;;4990530;28;20046;-79
2022/12/17 22:16:37;;;;;;;42.40;26.30;;;4.80;99.90;;;;;;4980952;28;20054;-79
2022/12/17 22:19:15;;;;;;;45.88;27.40;;;4.80;99.90;;;;;;4990508;28;20046;-77
2022/12/17 22:21:46;;;;;;;45.05;26.83;;;4.80;99.90;;;;;;4990065;28;20042;-74
2022/12/17 22:24:16;;;;;;;41.97;27.05;;;4.80;99.90;;;;;;4988528;28;20057;-73
2022/12/17 22:26:43;;;;;;;45.47;26.10;;;4.70;99.90;;;;;;4988933;28;20046;-73
2022/12/17 22:32:58;;;;;;;44.65;26.50;;;4.80;99.90;;;;;;4988922;28;20038;-73
2022/12/17 22:34:47;;;;;;;43.42;28.42;;;4.80;99.90;;;;;;4989748;28;20054;-74
2022/12/17 22:37:15;;;;;;;45.72;27.85;;;4.80;99.90;;;;;;4989716;28;20057;-74
2022/12/17 22:39:42;;;;;;;44.55;27.60;;;4.80;99.90;;;;;;4989774;28;20513;-73
2022/12/17 22:44:54;;;;;;;48.08;28.17;;;4.80;99.90;;;;;;5004718;28;20050;-74
2022/12/17 22:47:22;;;;;;;46.83;28.50;;;4.80;99.90;;;;;;5005103;28;20050;-73
2022/12/17 22:49:51;;;;;;;45.08;27.88;;;4.90;99.90;;;;;;4995591;28;20038;-74
2022/12/17 22:52:18;;;;;;;41.33;25.25;;;4.80;1.00;;;;;;4993880;28;20066;-74
2022/12/17 22:54:47;;;;;;;39.95;24.92;;;4.80;1.00;;;;;;4993887;28;20410;-72
2022/12/17 22:57:14;;;;;;;38.83;24.35;;;4.80;1.00;;;;;;4994156;28;20038;-73
2022/12/17 22:59:41;;;;;;;36.70;22.98;;;4.80;99.90;;;;;;4994208;28;20474;-73
2022/12/17 23:02:10;;;;;;;36.83;22.25;;;4.80;99.90;;;;;;4992717;28;20109;-74
2022/12/17 23:04:37;;;;;;;35.72;22.40;;;4.80;99.90;;;;;;4993319;28;20042;-74
2022/12/17 23:07:06;;;;;;;35.47;22.27;;;4.80;99.90;;;;;;4991654;28;20050;-75
2022/12/17 23:09:33;;;;;;;33.80;21.73;;;4.80;99.90;;;;;;4992115;28;20437;-72
2022/12/17 23:12:49;;;;;;;37.70;23.40;;;4.80;99.90;;;;;;4992423;28;20042;-73
2022/12/17 23:14:49;;;;;;;37.25;23.90;;;4.80;99.90;;;;;;4992867;28;20052;-74
2022/12/17 23:17:16;;;;;;;36.88;22.80;;;4.80;99.90;;;;;;4994894;28;20053;-73
2022/12/17 23:19:43;;;;;;;39.47;23.20;;;4.80;99.90;;;;;;4996391;28;20096;-73
2022/12/17 23:22:12;;;;;;;39.78;24.05;;;4.80;99.90;;;;;;5001341;28;20030;-73
2022/12/17 23:24:41;;;;;;;41.08;24.75;;;4.80;99.90;;;;;;4997516;28;20462;-73
2022/12/17 23:27:08;;;;;;;40.33;25.20;;;4.80;99.90;;;;;;4992794;28;20169;-73
2022/12/17 23:29:35;;;;;;;44.97;26.08;;;4.90;99.90;;;;;;4992147;28;20134;-73
2022/12/17 23:32:03;;;;;;;42.42;25.33;;;4.90;99.90;;;;;;4993240;28;20066;-72
2022/12/17 23:34:30;;;;;;;44.15;27.13;;;4.80;99.90;;;;;;4994459;28;20039;-74
2022/12/17 23:36:59;;;;;;;43.78;27.65;;;4.90;99.90;;;;;;4993266;28;20586;-75
2022/12/17 23:39:27;;;;;;;46.90;28.58;;;4.80;1.00;;;;;;4991717;28;20062;-72
2022/12/17 23:41:55;;;;;;;41.38;26.00;;;4.80;99.90;;;;;;4994060;28;20057;-73
2022/12/17 23:44:23;;;;;;;49.55;27.73;;;4.80;99.90;;;;;;4994017;28;20054;-73
2022/12/17 23:46:51;;;;;;;37.60;23.60;;;4.70;99.90;;;;;;4992404;28;20042;-73
2022/12/17 23:49:19;;;;;;;34.55;22.15;;;4.70;99.90;;;;;;4992275;28;20406;-74
2022/12/17 23:51:47;;;;;;;42.33;24.35;;;4.80;1.00;;;;;;4991751;28;20042;-73
2022/12/17 23:54:14;;;;;;;41.30;25.65;;;4.80;63.30;;;;;;4992525;28;20046;-72
2022/12/17 23:56:44;;;;;;;36.33;22.05;;;4.90;1.00;;;;;;4992718;28;20046;-73
2022/12/17 23:59:12;;;;;;;28.75;17.52;;;4.90;1.00;;;;;;5001164;28;20043;-73
